createdAt,value
2023-05-19T00:03:09.200Z,8.79
2023-05-19T00:08:12.107Z,8.76
2023-05-19T00:13:14.912Z,8.74
2023-05-19T00:18:17.498Z,8.71
2023-05-19T00:23:20.128Z,8.67
2023-05-19T00:28:22.815Z,8.66
2023-05-19T00:33:25.572Z,8.64
2023-05-19T00:38:28.482Z,8.65
2023-05-19T00:43:31.687Z,8.69
2023-05-19T00:48:34.288Z,8.73
2023-05-19T00:53:36.847Z,8.75
2023-05-19T00:58:39.570Z,8.75
2023-05-19T01:03:43.761Z,8.75
2023-05-19T01:08:46.590Z,8.76
2023-05-19T01:13:49.542Z,8.72
2023-05-19T01:19:19.638Z,8.69
2023-05-19T01:24:57.004Z,8.68
2023-05-19T01:30:22.295Z,8.70
2023-05-19T01:35:26.785Z,8.73
2023-05-19T01:40:30.865Z,8.76
2023-05-19T01:45:34.297Z,8.77
2023-05-19T01:50:36.913Z,8.75
2023-05-19T01:55:46.304Z,8.75
2023-05-19T02:01:04.111Z,8.76
2023-05-19T02:06:18.271Z,8.80
2023-05-19T02:12:00.316Z,8.84
2023-05-19T02:17:04.588Z,8.87
2023-05-19T02:22:07.250Z,8.86
2023-05-19T02:27:09.847Z,8.83
2023-05-19T02:32:14.887Z,8.81
2023-05-19T02:37:17.777Z,8.83
2023-05-19T02:42:20.788Z,8.85
2023-05-19T02:47:23.432Z,8.86
2023-05-19T02:52:26.209Z,8.85
2023-05-19T02:57:30.039Z,8.85
2023-05-19T03:02:34.145Z,8.90
2023-05-19T03:07:36.960Z,8.96
2023-05-19T03:12:39.733Z,9.02
2023-05-19T03:17:42.739Z,9.08
2023-05-19T03:22:45.340Z,9.13
2023-05-19T03:27:48.045Z,9.21
2023-05-19T03:32:52.065Z,9.31
2023-05-19T03:37:54.858Z,9.47
2023-05-19T03:42:57.454Z,9.63
2023-05-19T03:48:00.073Z,9.77
2023-05-19T03:53:02.690Z,9.84
2023-05-19T03:58:05.305Z,9.88
2023-05-19T04:03:08.458Z,9.94
2023-05-19T04:08:11.179Z,10.01
2023-05-19T04:13:13.772Z,10.09
2023-05-19T04:18:16.384Z,10.13
2023-05-19T04:23:18.960Z,10.17
2023-05-19T04:28:21.649Z,10.27
2023-05-19T04:33:24.664Z,10.38
2023-05-19T04:38:29.966Z,10.50
2023-05-19T04:43:32.528Z,10.61
2023-05-19T04:48:35.164Z,10.71
2023-05-19T04:53:40.179Z,10.83
2023-05-19T04:58:44.826Z,10.96
2023-05-19T05:03:47.626Z,11.08
2023-05-19T05:08:52.183Z,11.25
2023-05-19T05:13:58.030Z,11.46
2023-05-19T05:19:01.647Z,11.65
2023-05-19T05:24:04.728Z,11.87
2023-05-19T05:29:09.262Z,12.02
2023-05-19T05:34:11.904Z,12.18
2023-05-19T05:39:14.518Z,12.37
2023-05-19T05:44:17.198Z,12.50
2023-05-19T05:49:20.394Z,12.67
2023-05-19T05:54:24.802Z,12.93
2023-05-19T05:59:27.550Z,13.21
2023-05-19T06:04:31.202Z,13.40
2023-05-19T06:09:34.099Z,13.58
2023-05-19T06:14:36.760Z,13.78
2023-05-19T06:19:39.384Z,13.87
2023-05-19T06:24:42.038Z,13.98
2023-05-19T06:29:44.617Z,14.15
2023-05-19T06:34:53.956Z,14.40
2023-05-19T06:39:56.540Z,14.68
2023-05-19T06:44:59.259Z,14.92
2023-05-19T06:50:01.939Z,15.28
2023-05-19T06:55:07.728Z,15.65
2023-05-19T07:00:13.860Z,15.97
2023-05-19T07:05:17.947Z,16.17
2023-05-19T07:10:21.925Z,16.31
2023-05-19T07:15:24.513Z,16.47
2023-05-19T07:20:27.154Z,16.75
2023-05-19T07:25:30.642Z,17.01
2023-05-19T07:30:33.610Z,17.21
2023-05-19T07:35:36.571Z,17.40
2023-05-19T07:40:39.194Z,17.61
2023-05-19T07:45:41.822Z,17.71
2023-05-19T07:50:44.396Z,17.81
2023-05-19T07:55:47.097Z,17.93
2023-05-19T08:00:49.734Z,18.12
2023-05-19T08:05:52.529Z,18.38
2023-05-19T08:10:55.459Z,18.76
2023-05-19T08:15:59.907Z,19.07
2023-05-19T08:21:02.702Z,19.33
2023-05-19T08:26:05.740Z,19.71
2023-05-19T08:31:08.399Z,19.99
2023-05-19T08:36:11.705Z,19.98
2023-05-19T08:41:14.319Z,19.99
2023-05-19T08:46:17.122Z,19.95
2023-05-19T08:51:39.053Z,19.87
2023-05-19T08:56:45.682Z,19.90
2023-05-19T09:01:49.891Z,20.01
2023-05-19T09:06:52.540Z,20.09
2023-05-19T09:11:55.185Z,20.26
2023-05-19T09:16:57.876Z,20.56
2023-05-19T09:22:03.361Z,20.71
2023-05-19T09:27:06.187Z,20.54
2023-05-19T09:32:08.894Z,20.19
2023-05-19T09:37:13.078Z,19.98
2023-05-19T09:42:16.714Z,19.93
2023-05-19T09:47:19.275Z,19.77
2023-05-19T09:52:22.192Z,19.52
2023-05-19T09:57:28.422Z,19.46
2023-05-19T10:02:32.196Z,19.61
2023-05-19T10:07:35.153Z,19.79
2023-05-19T10:12:39.278Z,19.75
2023-05-19T10:17:43.715Z,19.48
2023-05-19T10:22:46.768Z,19.26
2023-05-19T10:27:58.390Z,19.38
2023-05-19T10:33:03.756Z,19.32
2023-05-19T10:38:42.737Z,18.96
2023-05-19T10:44:34.394Z,18.60
2023-05-19T10:49:37.337Z,18.65
2023-05-19T10:54:46.899Z,18.64
2023-05-19T10:59:49.935Z,18.54
2023-05-19T11:04:53.450Z,18.25
2023-05-19T11:09:56.047Z,18.03
2023-05-19T11:14:59.372Z,17.93
2023-05-19T11:20:01.953Z,17.91
2023-05-19T11:25:05.228Z,17.96
2023-05-19T11:30:09.319Z,17.86
2023-05-19T11:35:12.462Z,17.89
2023-05-19T11:40:15.724Z,18.00
2023-05-19T11:45:27.323Z,17.95
2023-05-19T11:50:31.927Z,17.88
2023-05-19T11:55:34.576Z,17.67
2023-05-19T12:00:40.740Z,17.41
2023-05-19T12:05:46.858Z,17.14
2023-05-19T12:10:53.203Z,16.85
2023-05-19T12:22:56.538Z,16.01
2023-05-19T12:28:00.731Z,15.85
2023-05-19T12:33:03.600Z,15.65
2023-05-19T12:38:06.767Z,15.39
2023-05-19T12:43:19.081Z,15.23
2023-05-19T12:48:22.887Z,15.18
2023-05-19T12:53:28.103Z,15.31
2023-05-19T12:58:34.268Z,15.45
2023-05-19T13:03:43.869Z,15.49
2023-05-19T13:08:47.321Z,15.33
2023-05-19T13:13:50.049Z,15.10
2023-05-19T13:18:53.550Z,14.97
2023-05-19T13:23:56.291Z,15.10
2023-05-19T13:28:59.029Z,15.44
2023-05-19T13:34:02.634Z,15.45
2023-05-19T13:39:05.460Z,15.33
2023-05-19T13:44:08.056Z,15.23
2023-05-19T13:49:10.618Z,14.95
2023-05-19T13:54:13.208Z,14.59
2023-05-19T13:59:17.290Z,14.23
2023-05-19T14:04:20.067Z,13.93
2023-05-19T14:09:23.121Z,13.72
2023-05-19T14:14:25.918Z,13.68
2023-05-19T14:19:30.282Z,13.79
2023-05-19T14:24:33.050Z,14.12
2023-05-19T14:29:35.799Z,14.50
2023-05-19T14:34:38.584Z,14.94
2023-05-19T14:39:41.268Z,15.19
2023-05-19T14:44:44.006Z,15.29
2023-05-19T14:49:46.829Z,15.59
2023-05-19T14:54:49.485Z,15.86
2023-05-19T14:59:52.087Z,15.87
2023-05-19T15:04:54.651Z,15.73
2023-05-19T15:09:57.273Z,15.45
2023-05-19T15:14:59.893Z,15.15
2023-05-19T15:20:02.655Z,14.93
2023-05-19T15:25:05.951Z,14.76
2023-05-19T15:30:08.811Z,14.86
2023-05-19T15:35:11.475Z,15.18
2023-05-19T15:40:14.192Z,15.53
2023-05-19T15:45:16.934Z,15.64
2023-05-19T15:50:19.601Z,15.50
2023-05-19T15:55:22.240Z,15.34
2023-05-19T16:00:25.057Z,15.11
2023-05-19T16:05:27.833Z,14.95
2023-05-19T16:10:30.557Z,14.82
2023-05-19T16:15:33.288Z,14.61
2023-05-19T16:20:35.996Z,14.40
2023-05-19T16:25:38.731Z,14.29
2023-05-19T16:30:41.415Z,14.25
2023-05-19T16:35:44.042Z,14.23
2023-05-19T16:40:46.617Z,14.15
2023-05-19T16:45:49.423Z,14.09
2023-05-19T16:50:52.448Z,14.00
2023-05-19T16:55:55.356Z,13.87
2023-05-19T17:00:58.096Z,13.76
2023-05-19T17:06:00.965Z,13.68
2023-05-19T17:11:03.574Z,13.62
2023-05-19T17:16:06.349Z,13.57
2023-05-19T17:21:09.107Z,13.52
2023-05-19T17:26:11.989Z,13.46
2023-05-19T17:31:15.846Z,13.43
2023-05-19T17:36:18.630Z,13.38
2023-05-19T17:41:21.846Z,13.32
2023-05-19T17:46:24.501Z,13.27
2023-05-19T17:51:27.788Z,13.20
2023-05-19T17:56:33.603Z,13.15
2023-05-19T18:01:36.573Z,13.11
2023-05-19T18:06:40.672Z,13.08
2023-05-19T18:11:43.591Z,13.06
2023-05-19T18:16:47.360Z,13.01
2023-05-19T18:21:50.096Z,12.99
2023-05-19T18:26:52.754Z,12.98
2023-05-19T18:31:55.587Z,12.97
2023-05-19T18:36:58.211Z,12.93
2023-05-19T18:42:01.933Z,12.88
2023-05-19T18:47:05.046Z,12.84
2023-05-19T18:52:08.070Z,12.77
2023-05-19T18:57:10.832Z,12.71
2023-05-19T19:02:13.395Z,12.68
2023-05-19T19:07:16.222Z,12.67
2023-05-19T19:12:20.474Z,12.65
2023-05-19T19:17:23.508Z,12.61
2023-05-19T19:22:26.512Z,12.58
2023-05-19T19:27:31.230Z,12.54
2023-05-19T19:32:33.954Z,12.50
2023-05-19T19:37:36.662Z,12.47
2023-05-19T19:42:40.307Z,12.43
2023-05-19T19:47:43.029Z,12.38
2023-05-19T19:52:45.702Z,12.35
2023-05-19T19:57:49.579Z,12.33
2023-05-19T20:03:04.463Z,12.31
2023-05-19T20:08:09.028Z,12.33
2023-05-19T20:13:11.717Z,12.34
2023-05-19T20:18:14.361Z,12.33
2023-05-19T20:23:17.198Z,12.32
2023-05-19T20:28:21.309Z,12.30
2023-05-19T20:33:25.694Z,12.28
2023-05-19T20:38:28.324Z,12.28
2023-05-19T20:43:32.200Z,12.30
2023-05-19T20:48:34.747Z,12.31
2023-05-19T20:53:37.526Z,12.29
2023-05-19T20:58:40.140Z,12.29
2023-05-19T21:03:42.719Z,12.28
2023-05-19T21:08:45.427Z,12.24
2023-05-19T21:13:48.053Z,12.17
2023-05-19T21:18:50.900Z,12.14
2023-05-19T21:23:53.558Z,12.12
2023-05-19T21:28:56.167Z,12.12
2023-05-19T21:33:58.870Z,12.12
2023-05-19T21:39:01.563Z,12.12
2023-05-19T21:44:04.339Z,12.11
2023-05-19T21:49:08.631Z,12.13
2023-05-19T21:54:11.419Z,12.10
2023-05-19T21:59:14.059Z,12.07
2023-05-19T22:04:18.513Z,12.07
2023-05-19T22:09:21.664Z,12.08
2023-05-19T22:14:24.364Z,12.09
2023-05-19T22:19:27.047Z,12.09
2023-05-19T22:24:29.739Z,12.08
2023-05-19T22:29:32.907Z,12.07
2023-05-19T22:34:35.589Z,12.04
2023-05-19T22:39:39.001Z,12.06
2023-05-19T22:44:43.356Z,12.06
2023-05-19T22:49:46.314Z,12.05
2023-05-19T22:54:48.945Z,12.02
2023-05-19T22:59:51.522Z,12.02
2023-05-19T23:04:54.144Z,12.02
2023-05-19T23:09:56.761Z,11.99
2023-05-19T23:14:59.459Z,11.98
2023-05-19T23:20:02.497Z,11.99
2023-05-19T23:25:07.684Z,11.98
2023-05-19T23:30:10.767Z,11.99
2023-05-19T23:35:15.737Z,11.99
2023-05-19T23:40:18.360Z,11.99
2023-05-19T23:45:20.968Z,12.00
2023-05-19T23:50:23.722Z,11.98
2023-05-19T23:55:26.301Z,11.98
